Andrews Air Force Base
KADW : rendu visible

Aérodrome :











RETROUVEZ-NOUS SUR...

 
LOGIN :

S'inscrire | Disclaimer

   EN    FR    IT 

 









Légende :    VFR   VFR Marginal   IFR   IFR Intensif   IFR Très Intensif
Visi : 
Plafond : 
>= 8 km
>= 3000ft
5 à 8 km
1000 à 3000 ft
1500m à 5 km
500 à 1000 ft
800 à 1500m
200 à 500 ft
< 800m
< 200 ft
Symboles :   Orages  Brouillard  Fortes neiges  Fortes précipitations  Vent > 20 kt






- Altitude de l'aérodrome : 280 ft


KADW - Andrews Air Force Base

DERNIER METAR :
  • 232356Z AUTO 32011KT 10SM SCT060 07/M03 A3023 RMK AO2 SLP245 T00731033 10113 20071 52027 $

METARs EXPIRÉS :
  • 232256Z AUTO 32012G24KT 10SM CLR 08/M03 A3021 RMK AO2 PK WND 33029/06 SLP238 T00751034 $
  • 232156Z AUTO 32019G27KT 10SM FEW050 08/M03 A3018 RMK AO2 PK WND 31035/33 SLP227 T00811031 $

TAF TAF KADW
Valide du 23 à 17h jusqu'au 24 à 23h UTC


231700Z 2317/2423 31015G25KT 9999 SCT250 520003 QNH3000INS
BECMG 2402/2403 32010G20KT 9999 SCT040 QNH3022INS
BECMG 2413/2414 33010G15KT 9999 FEW010 BKN040 QNH3035INS
BECMG 2419/2420 18006KT 9999 SCT020 BKN080 QNH3030INS TX11/2318Z TN04/2412Z
FIR KZDC / Amérique du Nord



MET'MAP, la Météo Aéronautique d'un coup d'oeil ! - Copyright ORBIFLY Décembre 2007 - Disclaimer

ORBIFLY MET'MAP TEAM :

Programmation & Développement : Alexandra Zaïnal
Sur une idée originale de : Baudouin d'Aumeries
Assistance à la programmation : Marc-Olivier Méhu
Soutien technique & logistique : Manuel Goepfert

Contact : metmap@orbifly.com




SOURCES & CREDITS :

   NOAA       Earth
Advisory